createdAt,value
2019-03-06T00:03:26.849Z,2.42
2019-03-06T00:08:25.944Z,1.92
2019-03-06T00:13:37.912Z,2.19
2019-03-06T00:18:36.630Z,1.96
2019-03-06T00:23:45.785Z,2.16
2019-03-06T00:28:55.220Z,2.19
2019-03-06T00:34:04.358Z,2.29
2019-03-06T00:39:13.855Z,2.14
2019-03-06T00:44:22.998Z,2.35
2019-03-06T00:49:32.258Z,2.02
2019-03-06T00:54:42.998Z,2.39
2019-03-06T00:59:41.810Z,2.20
2019-03-06T01:04:50.727Z,2.25
2019-03-06T01:09:59.582Z,2.25
2019-03-06T01:15:08.439Z,2.55
2019-03-06T01:20:17.311Z,2.34
2019-03-06T01:25:26.158Z,2.04
2019-03-06T01:30:35.045Z,2.17
2019-03-06T01:35:44.046Z,2.63
2019-03-06T01:40:52.912Z,2.19
2019-03-06T01:46:01.745Z,2.02
2019-03-06T01:51:11.755Z,2.14
2019-03-06T01:56:19.042Z,1.97
2019-03-06T02:01:28.230Z,2.30
2019-03-06T02:06:37.082Z,2.09
2019-03-06T02:11:45.913Z,1.92
2019-03-06T02:16:54.786Z,1.71
2019-03-06T02:22:03.678Z,1.74
2019-03-06T02:27:12.548Z,1.87
2019-03-06T02:32:21.604Z,1.96
2019-03-06T02:37:30.452Z,1.77
2019-03-06T02:42:39.595Z,1.72
2019-03-06T02:47:48.491Z,1.91
2019-03-06T02:52:57.323Z,1.70
2019-03-06T02:58:06.210Z,1.84
2019-03-06T03:03:15.126Z,1.72
2019-03-06T03:08:23.979Z,1.95
2019-03-06T03:13:32.829Z,1.68
2019-03-06T03:18:41.718Z,1.62
2019-03-06T03:23:50.555Z,1.69
2019-03-06T03:28:59.459Z,1.72
2019-03-06T03:34:08.366Z,1.60
2019-03-06T03:39:17.186Z,1.59
2019-03-06T03:44:26.063Z,1.84
2019-03-06T03:49:34.931Z,2.01
2019-03-06T03:54:44.193Z,2.08
2019-03-06T03:59:55.543Z,2.22
2019-03-06T04:05:01.427Z,1.97
2019-03-06T04:10:10.261Z,2.19
2019-03-06T04:15:19.211Z,2.15
2019-03-06T04:20:28.027Z,2.41
2019-03-06T04:25:36.930Z,2.15
2019-03-06T04:30:45.795Z,2.25
2019-03-06T04:35:54.664Z,2.02
2019-03-06T04:41:03.475Z,2.72
2019-03-06T04:46:10.875Z,2.40
2019-03-06T04:51:19.705Z,2.51
2019-03-06T04:56:28.590Z,2.49
2019-03-06T05:01:37.414Z,2.44
2019-03-06T05:06:46.343Z,2.53
2019-03-06T05:11:55.199Z,2.49
2019-03-06T05:17:04.095Z,2.30
2019-03-06T05:22:13.256Z,2.48
2019-03-06T05:27:22.178Z,2.22
2019-03-06T05:32:31.015Z,2.20
2019-03-06T05:37:40.027Z,2.00
2019-03-06T05:42:48.942Z,1.81
2019-03-06T05:47:57.819Z,1.63
2019-03-06T05:53:06.622Z,1.25
2019-03-06T05:58:15.474Z,1.19
2019-03-06T06:03:24.333Z,1.15
2019-03-06T06:08:33.179Z,1.18
2019-03-06T06:13:42.138Z,1.20
2019-03-06T06:18:50.992Z,1.12
2019-03-06T06:23:59.827Z,1.00
2019-03-06T06:29:08.739Z,1.09
2019-03-06T06:34:17.563Z,1.39
2019-03-06T06:39:26.432Z,1.40
2019-03-06T06:44:35.303Z,1.23
2019-03-06T06:49:46.815Z,1.02
2019-03-06T06:54:45.634Z,1.01
2019-03-06T06:59:54.963Z,1.23
2019-03-06T07:05:03.882Z,1.23
2019-03-06T07:10:12.742Z,1.44
2019-03-06T07:15:21.637Z,1.73
2019-03-06T07:20:30.546Z,5.40
2019-03-06T07:25:39.424Z,3.44
2019-03-06T07:30:48.351Z,2.61
2019-03-06T07:35:57.237Z,3.27
2019-03-06T07:41:06.138Z,2.92
2019-03-06T07:46:15.032Z,2.22
2019-03-06T07:51:23.936Z,2.43
2019-03-06T07:56:32.301Z,2.29
2019-03-06T08:01:41.181Z,2.96
2019-03-06T08:06:50.050Z,3.13
2019-03-06T08:11:59.359Z,3.54
2019-03-06T08:17:08.246Z,3.61
2019-03-06T08:22:17.146Z,3.51
2019-03-06T08:27:26.019Z,3.84
2019-03-06T08:32:34.878Z,5.36
2019-03-06T08:37:43.755Z,4.10
2019-03-06T08:42:52.620Z,4.34
2019-03-06T08:48:01.540Z,4.74
2019-03-06T08:53:10.398Z,4.49
2019-03-06T08:58:19.242Z,4.33
2019-03-06T09:03:28.303Z,4.33
2019-03-06T09:08:37.174Z,4.56
2019-03-06T09:13:46.069Z,3.80
2019-03-06T09:18:54.883Z,3.94
2019-03-06T09:24:03.818Z,4.40
2019-03-06T09:29:13.139Z,4.28
2019-03-06T09:34:21.998Z,4.58
2019-03-06T09:39:30.930Z,4.02
2019-03-06T09:44:40.105Z,4.08
2019-03-06T09:49:48.999Z,4.06
2019-03-06T09:54:57.902Z,4.25
2019-03-06T10:00:07.095Z,4.93
2019-03-06T10:05:16.014Z,4.35
2019-03-06T10:10:24.858Z,4.55
2019-03-06T10:15:33.694Z,4.81
2019-03-06T10:20:42.598Z,5.37
2019-03-06T10:25:51.546Z,5.70
2019-03-06T10:31:02.634Z,4.50
2019-03-06T10:36:08.897Z,4.72
2019-03-06T10:41:17.764Z,3.96
2019-03-06T10:46:26.647Z,3.84
2019-03-06T10:51:35.534Z,3.76
2019-03-06T10:56:44.429Z,2.82
2019-03-06T11:01:53.309Z,2.50
2019-03-06T11:07:02.220Z,2.03
2019-03-06T11:12:11.058Z,1.78
2019-03-06T11:17:19.913Z,1.56
2019-03-06T11:22:28.806Z,1.84
2019-03-06T11:27:37.690Z,1.73
2019-03-06T11:32:54.340Z,1.34
2019-03-06T11:37:55.219Z,1.33
2019-03-06T11:43:04.141Z,1.24
2019-03-06T11:48:13.351Z,1.14
2019-03-06T11:53:22.193Z,1.21
2019-03-06T11:58:31.076Z,1.27
2019-03-06T12:03:40.122Z,1.37
2019-03-06T12:08:49.042Z,1.48
2019-03-06T12:13:58.318Z,1.44
2019-03-06T12:19:07.242Z,1.58
2019-03-06T12:24:16.122Z,1.58
2019-03-06T12:29:25.158Z,1.49
2019-03-06T12:34:34.030Z,1.42
2019-03-06T12:39:42.939Z,1.61
2019-03-06T12:44:51.814Z,1.74
2019-03-06T12:50:05.774Z,1.75
2019-03-06T12:55:09.195Z,1.63
2019-03-06T13:00:18.099Z,1.65
2019-03-06T13:05:27.039Z,1.45
2019-03-06T13:10:35.923Z,1.84
2019-03-06T13:15:44.830Z,1.73
2019-03-06T13:20:53.726Z,1.46
2019-03-06T13:26:10.002Z,1.57
2019-03-06T13:31:11.030Z,1.70
2019-03-06T13:36:19.902Z,2.09
2019-03-06T13:41:29.274Z,1.67
2019-03-06T13:46:38.127Z,1.94
2019-03-06T13:51:47.071Z,1.83
2019-03-06T13:56:55.957Z,2.03
2019-03-06T14:02:04.823Z,1.81
2019-03-06T14:07:13.723Z,2.01
2019-03-06T14:12:22.618Z,1.93
2019-03-06T14:17:31.589Z,2.24
2019-03-06T14:22:40.500Z,1.97
2019-03-06T14:27:49.379Z,1.71
2019-03-06T14:32:58.411Z,1.88
2019-03-06T14:38:19.565Z,1.75
2019-03-06T14:43:26.071Z,1.89
2019-03-06T14:48:35.341Z,1.83
2019-03-06T14:53:34.828Z,1.94
2019-03-06T14:58:37.280Z,2.43
2019-03-06T15:03:36.348Z,1.96
2019-03-06T15:08:45.302Z,1.65
2019-03-06T15:13:54.570Z,1.61
2019-03-06T15:19:03.436Z,2.06
2019-03-06T15:24:12.362Z,1.62
2019-03-06T15:29:24.681Z,2.03
2019-03-06T15:34:23.574Z,1.80
2019-03-06T15:39:42.219Z,2.07
2019-03-06T15:44:41.001Z,1.84
2019-03-06T15:49:49.918Z,2.02
2019-03-06T15:54:59.365Z,1.99
2019-03-06T16:00:08.296Z,1.73
2019-03-06T16:05:17.264Z,2.00
2019-03-06T16:10:26.150Z,1.95
2019-03-06T16:15:35.091Z,1.82
2019-03-06T16:20:44.429Z,1.84
2019-03-06T16:25:53.417Z,2.41
2019-03-06T16:31:02.313Z,2.95
2019-03-06T16:36:11.224Z,3.54
2019-03-06T16:41:20.106Z,2.04
2019-03-06T16:46:28.014Z,1.27
2019-03-06T16:51:36.878Z,1.57
2019-03-06T16:56:45.814Z,1.59
2019-03-06T17:01:55.223Z,1.49
2019-03-06T17:07:04.433Z,1.35
2019-03-06T17:12:13.262Z,1.40
2019-03-06T17:17:22.237Z,1.38
2019-03-06T17:22:31.156Z,1.32
2019-03-06T17:27:40.174Z,1.07
2019-03-06T17:32:49.079Z,1.06
2019-03-06T17:37:58.511Z,0.76
2019-03-06T17:43:07.619Z,0.97
2019-03-06T17:48:16.579Z,0.57
2019-03-06T17:53:27.321Z,1.01
2019-03-06T17:58:33.967Z,0.55
2019-03-06T18:03:42.797Z,0.73
2019-03-06T18:08:51.771Z,1.15
2019-03-06T18:14:00.701Z,0.80
2019-03-06T18:19:09.680Z,0.82
2019-03-06T18:24:18.566Z,0.96
2019-03-06T18:29:26.023Z,1.10
2019-03-06T18:34:49.826Z,1.12
2019-03-06T18:39:37.829Z,1.55
2019-03-06T18:44:46.691Z,1.60
2019-03-06T18:49:55.627Z,1.35
2019-03-06T18:55:04.487Z,1.25
2019-03-06T19:00:13.507Z,1.42
2019-03-06T19:05:22.329Z,1.15
2019-03-06T19:10:31.330Z,1.31
2019-03-06T19:15:40.230Z,1.32
2019-03-06T19:20:49.209Z,1.50
2019-03-06T19:25:58.095Z,3.03
2019-03-06T19:31:07.042Z,3.71
2019-03-06T19:36:16.000Z,3.30
2019-03-06T19:41:24.979Z,3.03
2019-03-06T19:46:34.389Z,2.05
2019-03-06T19:51:51.203Z,1.38
2019-03-06T19:56:53.057Z,1.07
2019-03-06T20:02:00.353Z,1.32
2019-03-06T20:07:09.686Z,1.33
2019-03-06T20:12:18.693Z,1.27
2019-03-06T20:17:27.638Z,1.01
2019-03-06T20:22:36.638Z,1.47
2019-03-06T20:27:45.602Z,1.40
2019-03-06T20:32:54.539Z,1.44
2019-03-06T20:38:03.388Z,1.24
2019-03-06T20:43:12.346Z,1.05
2019-03-06T20:48:21.202Z,1.50
2019-03-06T20:53:30.402Z,1.40
2019-03-06T20:58:39.780Z,0.90
2019-03-06T21:03:50.292Z,1.51
2019-03-06T21:08:58.218Z,1.87
2019-03-06T21:14:07.194Z,2.53
2019-03-06T21:19:16.054Z,1.57
2019-03-06T21:24:24.999Z,1.26
2019-03-06T21:29:33.855Z,1.08
2019-03-06T21:34:43.283Z,1.13
2019-03-06T21:39:52.149Z,1.08
2019-03-06T21:45:01.032Z,1.19
2019-03-06T21:50:10.279Z,0.98
2019-03-06T21:55:19.219Z,1.04
2019-03-06T22:00:28.793Z,1.15
2019-03-06T22:05:37.688Z,1.28
2019-03-06T22:10:46.614Z,1.27
2019-03-06T22:15:55.631Z,1.51
2019-03-06T22:21:04.469Z,1.43
2019-03-06T22:26:13.536Z,1.23
2019-03-06T22:31:23.017Z,1.42
2019-03-06T22:36:31.936Z,1.28
2019-03-06T22:41:40.766Z,1.52
2019-03-06T22:46:49.706Z,1.75
2019-03-06T22:51:58.539Z,1.82
2019-03-06T22:57:07.496Z,1.49
2019-03-06T23:02:16.370Z,1.35
2019-03-06T23:07:25.443Z,2.17
2019-03-06T23:12:34.551Z,1.50
2019-03-06T23:17:43.589Z,1.71
2019-03-06T23:22:52.735Z,1.48
2019-03-06T23:28:01.720Z,1.94
2019-03-06T23:33:10.672Z,1.83
2019-03-06T23:38:19.671Z,1.39
2019-03-06T23:43:28.526Z,1.48
2019-03-06T23:48:37.457Z,1.49
2019-03-06T23:53:46.326Z,1.44
2019-03-06T23:58:55.230Z,1.94
